createdAt,value
2023-07-17T00:04:36.092Z,81.47
2023-07-17T00:10:42.596Z,70.68
2023-07-17T00:16:51.471Z,66.59
2023-07-17T00:23:09.458Z,66.19
2023-07-17T00:29:32.183Z,67.20
2023-07-17T00:35:37.842Z,66.43
2023-07-17T00:41:45.575Z,69.62
2023-07-17T00:47:52.833Z,85.88
2023-07-17T00:53:57.093Z,80.53
2023-07-17T01:00:01.539Z,70.37
2023-07-17T01:06:04.036Z,81.46
2023-07-17T01:12:06.473Z,72.41
2023-07-17T01:18:10.043Z,71.71
2023-07-17T01:24:12.432Z,77.71
2023-07-17T01:30:14.871Z,76.92
2023-07-17T01:36:18.438Z,85.21
2023-07-17T01:42:28.962Z,72.85
2023-07-17T01:48:30.847Z,70.29
2023-07-17T01:54:35.890Z,73.02
2023-07-17T02:00:38.329Z,70.53
2023-07-17T02:06:42.796Z,68.29
2023-07-17T02:12:48.262Z,67.93
2023-07-17T02:19:05.801Z,69.24
2023-07-17T02:25:09.566Z,68.17
2023-07-17T02:31:16.007Z,73.06
2023-07-17T02:37:24.188Z,70.79
2023-07-17T02:43:26.647Z,69.74
2023-07-17T02:49:29.125Z,80.50
2023-07-17T02:55:31.659Z,71.64
2023-07-17T03:01:40.162Z,73.82
2023-07-17T03:07:45.541Z,71.29
2023-07-17T03:13:48.098Z,70.13
2023-07-17T03:19:52.568Z,69.89
2023-07-17T03:26:10.086Z,74.12
2023-07-17T03:32:12.610Z,75.61
2023-07-17T03:38:30.103Z,73.49
2023-07-17T03:44:32.660Z,81.52
2023-07-17T03:50:37.075Z,75.87
2023-07-17T03:56:41.564Z,72.33
2023-07-17T04:02:47.051Z,73.05
2023-07-17T04:08:49.468Z,70.19
2023-07-17T04:14:55.453Z,68.31
2023-07-17T04:20:58.391Z,68.07
2023-07-17T04:27:01.848Z,66.03
2023-07-17T04:33:06.479Z,64.96
2023-07-17T04:39:45.741Z,65.86
2023-07-17T04:46:00.481Z,63.90
2023-07-17T04:52:38.139Z,61.83
2023-07-17T04:58:45.125Z,59.16
2023-07-17T05:05:20.218Z,59.26
2023-07-17T05:11:28.734Z,55.26
2023-07-17T05:17:49.402Z,58.41
2023-07-17T05:23:55.737Z,57.96
2023-07-17T05:30:09.579Z,56.40
2023-07-17T05:36:13.010Z,55.60
2023-07-17T05:42:19.755Z,53.95
2023-07-17T05:48:29.656Z,54.21
2023-07-17T05:54:47.252Z,55.20
2023-07-17T06:00:54.912Z,55.97
2023-07-17T06:06:59.965Z,53.52
2023-07-17T06:13:10.920Z,52.21
2023-07-17T06:19:22.210Z,53.08
2023-07-17T06:25:27.690Z,55.01
2023-07-17T06:31:29.782Z,53.40
2023-07-17T06:37:44.670Z,51.50
2023-07-17T06:43:47.110Z,50.89
2023-07-17T06:50:10.545Z,52.40
2023-07-17T06:56:15.739Z,50.51
2023-07-17T07:02:19.737Z,48.87
2023-07-17T07:08:30.910Z,52.03
2023-07-17T07:14:45.351Z,49.05
2023-07-17T07:20:53.602Z,49.43
2023-07-17T07:27:01.720Z,49.50
2023-07-17T07:33:04.015Z,46.88
2023-07-17T07:39:13.473Z,47.78
2023-07-17T07:45:22.178Z,47.76
2023-07-17T07:51:36.477Z,48.10
2023-07-17T07:58:01.715Z,46.97
2023-07-17T08:04:06.275Z,46.53
2023-07-17T08:10:42.352Z,44.97
2023-07-17T08:16:59.071Z,43.03
2023-07-17T08:23:04.340Z,44.91
2023-07-17T08:29:22.527Z,43.19
2023-07-17T08:35:29.446Z,42.88
2023-07-17T08:41:31.969Z,42.88
2023-07-17T08:48:08.558Z,41.77
2023-07-17T08:54:30.159Z,40.27
2023-07-17T09:00:52.167Z,40.18
2023-07-17T09:07:01.922Z,40.05
2023-07-17T09:13:56.237Z,37.45
2023-07-17T09:20:26.666Z,39.22
2023-07-17T09:26:39.473Z,39.13
2023-07-17T09:32:50.245Z,36.05
2023-07-17T09:38:56.680Z,37.60
2023-07-17T09:45:00.281Z,35.39
2023-07-17T09:51:15.971Z,35.24
2023-07-17T09:57:35.290Z,36.33
2023-07-17T10:03:40.736Z,35.26
2023-07-17T10:09:45.837Z,37.75
2023-07-17T10:15:51.553Z,35.99
2023-07-17T10:22:36.563Z,35.33
2023-07-17T10:28:39.998Z,35.13
2023-07-17T10:34:54.517Z,35.79
2023-07-17T10:41:17.290Z,36.51
2023-07-17T10:47:27.825Z,34.30
2023-07-17T10:53:32.033Z,35.71
2023-07-17T10:59:37.799Z,35.43
2023-07-17T11:05:45.745Z,33.96
2023-07-17T11:11:54.813Z,34.55
2023-07-17T11:18:06.364Z,34.32
2023-07-17T11:24:08.618Z,34.36
2023-07-17T11:30:26.354Z,34.59
2023-07-17T11:36:39.828Z,34.42
2023-07-17T11:43:05.405Z,33.43
2023-07-17T11:49:08.396Z,33.62
2023-07-17T11:55:36.495Z,33.72
2023-07-17T12:01:42.674Z,32.31
2023-07-17T12:07:46.590Z,32.80
2023-07-17T12:13:49.683Z,32.73
2023-07-17T12:19:51.570Z,33.22
2023-07-17T12:25:53.373Z,33.57
2023-07-17T12:31:57.034Z,32.78
2023-07-17T12:38:00.489Z,33.25
2023-07-17T12:44:37.047Z,33.26
2023-07-17T12:50:40.646Z,35.15
2023-07-17T12:56:47.861Z,34.57
2023-07-17T13:02:50.665Z,34.34
2023-07-17T13:08:56.950Z,34.48
2023-07-17T13:15:00.469Z,33.44
2023-07-17T13:21:02.606Z,32.78
2023-07-17T13:27:09.596Z,33.57
2023-07-17T13:33:11.972Z,33.36
2023-07-17T13:39:16.669Z,34.03
2023-07-17T13:45:42.586Z,33.09
2023-07-17T13:51:49.063Z,32.47
2023-07-17T13:58:06.446Z,31.54
2023-07-17T14:04:24.225Z,33.76
2023-07-17T14:17:04.181Z,34.17
2023-07-17T14:23:25.625Z,34.60
2023-07-17T14:30:10.091Z,33.25
2023-07-17T14:36:49.310Z,33.90
2023-07-17T14:43:59.893Z,33.95
2023-07-17T14:58:02.365Z,34.30
2023-07-17T15:04:17.832Z,34.91
2023-07-17T15:17:47.045Z,36.69
2023-07-17T15:39:08.475Z,37.79
2023-07-17T15:58:14.514Z,38.30
2023-07-17T15:59:14.162Z,39.19
2023-07-17T16:05:17.256Z,39.81
2023-07-17T17:02:31.303Z,42.94
2023-07-17T17:28:08.656Z,44.87
2023-07-17T17:34:13.442Z,44.63
2023-07-17T17:40:15.429Z,51.43
2023-07-17T17:46:27.999Z,51.10
2023-07-17T17:52:33.756Z,46.59
2023-07-17T17:58:50.678Z,49.69
2023-07-17T18:05:03.236Z,53.10
2023-07-17T18:11:13.843Z,48.34
2023-07-17T18:17:41.059Z,52.85
2023-07-17T18:23:43.861Z,52.26
2023-07-17T18:29:51.378Z,49.94
2023-07-17T18:35:55.834Z,49.77
2023-07-17T18:42:11.402Z,53.79
2023-07-17T18:48:20.576Z,56.38
2023-07-17T18:54:35.410Z,58.98
2023-07-17T19:00:44.903Z,57.78
2023-07-17T19:07:08.494Z,53.02
2023-07-17T19:13:22.044Z,51.68
2023-07-17T19:19:34.519Z,55.48
2023-07-17T19:25:46.368Z,59.55
2023-07-17T19:31:49.499Z,59.64
2023-07-17T19:44:08.466Z,54.56
2023-07-17T19:50:41.256Z,51.29
2023-07-17T19:56:46.459Z,54.31
2023-07-17T20:02:49.042Z,54.61
2023-07-17T20:08:57.988Z,53.45
2023-07-17T20:15:30.181Z,55.79
2023-07-17T20:21:55.556Z,57.72
2023-07-17T20:28:23.561Z,63.22
2023-07-17T20:41:52.739Z,62.29
2023-07-17T20:48:09.752Z,62.95
2023-07-17T20:53:19.346Z,60.57
2023-07-17T20:54:32.591Z,62.20
2023-07-17T21:00:54.421Z,65.86
2023-07-17T21:07:00.944Z,64.86
2023-07-17T21:13:13.013Z,64.09
2023-07-17T21:19:23.040Z,61.68
2023-07-17T21:25:37.381Z,62.60
2023-07-17T21:31:55.179Z,62.29
2023-07-17T21:38:02.736Z,58.44
2023-07-17T21:44:21.375Z,64.26
2023-07-17T21:50:39.579Z,67.94
2023-07-17T21:56:42.498Z,60.47
2023-07-17T22:02:54.842Z,65.43
2023-07-17T22:09:07.420Z,62.06
2023-07-17T22:15:48.045Z,64.86
2023-07-17T22:22:05.176Z,71.18
2023-07-17T22:28:17.808Z,71.08
2023-07-17T22:34:23.398Z,72.24
2023-07-17T22:40:36.946Z,64.12
2023-07-17T22:46:48.502Z,72.73
2023-07-17T22:52:51.809Z,69.91
2023-07-17T22:59:26.622Z,65.41
2023-07-17T23:05:32.993Z,65.81
2023-07-17T23:11:41.355Z,65.59
2023-07-17T23:17:52.815Z,63.63
2023-07-17T23:23:55.512Z,61.94
2023-07-17T23:30:22.157Z,62.38
2023-07-17T23:36:35.131Z,62.10
2023-07-17T23:42:43.737Z,60.76
2023-07-17T23:49:12.634Z,62.01
2023-07-17T23:55:53.592Z,60.57
